PWSweather.com
Personal Weather Stations
Station Observations
KCOFALCO8
Falcon Hills, Falcon, CO 80831

Falcon HillsFalcon, CO 80831

Lat: 38.979792, Lon: -104.61195

Elevation: 7170

Station Type: AcuRite Pro 5-in-1

http://wx.frazierhome.net/

Latest ConditionsUpdated 3:58:04 AM MST Sunday, Feb 17, 2019
Currently Today's Max Today's Min Today's Average
Temperature 15.6°F-9.1°C 15.8°F-9.0°C 11.2°F-11.6°C 13.8°F-10.1°C
Dew Point -0.8°F-18.2°C 3.1°F-16.1°C -1.1°F-18.4°C 0.6°F-17.4°C
Winds 7.0 mph WNW11.3 kmh WNW 11.0 mph -17.7 kmh - - 6.3 mph 10.1 kmh
Wind Gusts -- -- - -
Humidity 48% 65% 48% 56%
Pressure 29.77 in1008.1 mb 29.77 in1008.1 mb 29.75 in1007.5 mb -
Hour Temp Dew Point Humidity Winds Wind Gusts Pressure Precip Precip Rate Daily Precip Total
03:58 AM 15.6°F-9.1°C -0.8°F-18.2°C 48% 7.0 mph WNW11.3 kmh WNW -- 29.77 in1008.1 mb 0.00 in0.0 mm 0.00 in0.0 mm 0.00 in0.0 mm
03:57 AM 15.3°F-9.3°C -1.1°F-18.4°C 48% 9.0 mph W14.5 kmh W -- 29.77 in1008.1 mb 0.00 in0.0 mm 0.00 in0.0 mm 0.00 in0.0 mm
03:56 AM 15.3°F-9.3°C -0.7°F-18.2°C 49% 9.0 mph W14.5 kmh W -- 29.77 in1008.1 mb 0.00 in0.0 mm 0.00 in0.0 mm 0.00 in0.0 mm
03:55 AM 15.2°F-9.3°C -0.7°F-18.2°C 49% 10.0 mph W16.1 kmh W -- 29.77 in1008.1 mb 0.00 in0.0 mm 0.00 in0.0 mm 0.00 in0.0 mm
03:54 AM 15.0°F-9.4°C -0.8°F-18.2°C 49% 7.0 mph W11.3 kmh W -- 29.77 in1008.1 mb 0.00 in0.0 mm 0.00 in0.0 mm 0.00 in0.0 mm
03:53 AM 15.0°F-9.4°C -0.8°F-18.2°C 49% 9.0 mph W14.5 kmh W -- 29.77 in1008.1 mb 0.00 in0.0 mm 0.00 in0.0 mm 0.00 in0.0 mm
03:52 AM 15.0°F-9.4°C -0.4°F-18.0°C 50% 8.0 mph W12.9 kmh W -- 29.77 in1008.1 mb 0.00 in0.0 mm 0.00 in0.0 mm 0.00 in0.0 mm
03:51 AM 15.0°F-9.4°C -0.4°F-18.0°C 50% 7.0 mph W11.3 kmh W -- 29.77 in1008.1 mb 0.00 in0.0 mm 0.00 in0.0 mm 0.00 in0.0 mm
03:50 AM 15.0°F-9.4°C -0.4°F-18.0°C 50% 8.0 mph W12.9 kmh W -- 29.77 in1008.1 mb 0.00 in0.0 mm 0.00 in0.0 mm 0.00 in0.0 mm
03:49 AM 14.9°F-9.5°C -0.6°F-18.1°C 50% 9.0 mph WNW14.5 kmh WNW -- 29.77 in1008.1 mb 0.00 in0.0 mm 0.00 in0.0 mm 0.00 in0.0 mm
03:48 AM 14.9°F-9.5°C -0.6°F-18.1°C 50% 7.0 mph W11.3 kmh W -- 29.77 in1008.1 mb 0.00 in0.0 mm 0.00 in0.0 mm 0.00 in0.0 mm
03:47 AM 14.9°F-9.5°C -0.6°F-18.1°C 50% 6.0 mph W9.7 kmh W -- 29.76 in1007.8 mb 0.00 in0.0 mm 0.00 in0.0 mm 0.00 in0.0 mm
03:46 AM 14.9°F-9.5°C -0.6°F-18.1°C 50% 9.0 mph W14.5 kmh W -- 29.77 in1008.1 mb 0.00 in0.0 mm 0.00 in0.0 mm 0.00 in0.0 mm
03:45 AM 14.9°F-9.5°C -0.6°F-18.1°C 50% 7.0 mph W11.3 kmh W -- 29.77 in1008.1 mb 0.00 in0.0 mm 0.00 in0.0 mm 0.00 in0.0 mm
03:44 AM 14.9°F-9.5°C -0.6°F-18.1°C 50% 8.0 mph WSW12.9 kmh WSW -- 29.77 in1008.1 mb 0.00 in0.0 mm 0.00 in0.0 mm 0.00 in0.0 mm
03:43 AM 14.9°F-9.5°C -0.6°F-18.1°C 50% 6.0 mph W9.7 kmh W -- 29.76 in1007.8 mb 0.00 in0.0 mm 0.00 in0.0 mm 0.00 in0.0 mm
03:42 AM 14.9°F-9.5°C -0.6°F-18.1°C 50% 7.0 mph W11.3 kmh W -- 29.77 in1008.1 mb 0.00 in0.0 mm 0.00 in0.0 mm 0.00 in0.0 mm
03:41 AM 14.9°F-9.5°C -0.6°F-18.1°C 50% 7.0 mph WSW11.3 kmh WSW -- 29.77 in1008.1 mb 0.00 in0.0 mm 0.00 in0.0 mm 0.00 in0.0 mm
03:40 AM 14.9°F-9.5°C -0.6°F-18.1°C 50% 8.0 mph WNW12.9 kmh WNW -- 29.77 in1008.1 mb 0.00 in0.0 mm 0.00 in0.0 mm 0.00 in0.0 mm
03:39 AM 14.9°F-9.5°C -0.6°F-18.1°C 50% 6.0 mph WSW9.7 kmh WSW -- 29.77 in1008.1 mb 0.00 in0.0 mm 0.00 in0.0 mm 0.00 in0.0 mm
03:38 AM 14.9°F-9.5°C -0.6°F-18.1°C 50% 6.0 mph WNW9.7 kmh WNW -- 29.77 in1008.1 mb 0.00 in0.0 mm 0.00 in0.0 mm 0.00 in0.0 mm
03:37 AM 14.9°F-9.5°C -0.6°F-18.1°C 50% 7.0 mph W11.3 kmh W -- 29.77 in1008.1 mb 0.00 in0.0 mm 0.00 in0.0 mm 0.00 in0.0 mm
03:36 AM 14.9°F-9.5°C -0.6°F-18.1°C 50% 9.0 mph W14.5 kmh W -- 29.77 in1008.1 mb 0.00 in0.0 mm 0.00 in0.0 mm 0.00 in0.0 mm
03:35 AM 15.0°F-9.4°C -0.4°F-18.0°C 50% 8.0 mph WNW12.9 kmh WNW -- 29.77 in1008.1 mb 0.00 in0.0 mm 0.00 in0.0 mm 0.00 in0.0 mm
03:33 AM 15.0°F-9.4°C -0.4°F-18.0°C 50% 8.0 mph W12.9 kmh W -- 29.77 in1008.1 mb 0.00 in0.0 mm 0.00 in0.0 mm 0.00 in0.0 mm
03:32 AM 15.0°F-9.4°C -0.4°F-18.0°C 50% 6.0 mph NW9.7 kmh NW -- 29.76 in1007.8 mb 0.00 in0.0 mm 0.00 in0.0 mm 0.00 in0.0 mm
03:31 AM 15.0°F-9.4°C -0.4°F-18.0°C 50% 5.0 mph W8.0 kmh W -- 29.77 in1008.1 mb 0.00 in0.0 mm 0.00 in0.0 mm 0.00 in0.0 mm
03:30 AM 15.2°F-9.3°C -0.2°F-17.9°C 50% 7.0 mph W11.3 kmh W -- 29.76 in1007.8 mb 0.00 in0.0 mm 0.00 in0.0 mm 0.00 in0.0 mm
03:29 AM 15.2°F-9.3°C -0.2°F-17.9°C 50% 9.0 mph W14.5 kmh W -- 29.76 in1007.8 mb 0.00 in0.0 mm 0.00 in0.0 mm 0.00 in0.0 mm
03:28 AM 15.2°F-9.3°C -0.2°F-17.9°C 50% 6.0 mph W9.7 kmh W -- 29.76 in1007.8 mb 0.00 in0.0 mm 0.00 in0.0 mm 0.00 in0.0 mm
03:27 AM 15.2°F-9.3°C -0.2°F-17.9°C 50% 7.0 mph W11.3 kmh W -- 29.76 in1007.8 mb 0.00 in0.0 mm 0.00 in0.0 mm 0.00 in0.0 mm
03:26 AM 15.2°F-9.3°C -0.2°F-17.9°C 50% 8.0 mph W12.9 kmh W -- 29.77 in1008.1 mb 0.00 in0.0 mm 0.00 in0.0 mm 0.00 in0.0 mm
03:25 AM 15.2°F-9.3°C -0.2°F-17.9°C 50% 7.0 mph WNW11.3 kmh WNW -- 29.76 in1007.8 mb 0.00 in0.0 mm 0.00 in0.0 mm 0.00 in0.0 mm
03:24 AM 15.2°F-9.3°C -0.2°F-17.9°C 50% 8.0 mph NW12.9 kmh NW -- 29.76 in1007.8 mb 0.00 in0.0 mm 0.00 in0.0 mm 0.00 in0.0 mm
03:23 AM 15.2°F-9.3°C -0.2°F-17.9°C 50% 10.0 mph W16.1 kmh W -- 29.76 in1007.8 mb 0.00 in0.0 mm 0.00 in0.0 mm 0.00 in0.0 mm
03:22 AM 15.2°F-9.3°C -0.2°F-17.9°C 50% 9.0 mph W14.5 kmh W -- 29.76 in1007.8 mb 0.00 in0.0 mm 0.00 in0.0 mm 0.00 in0.0 mm
03:21 AM 15.2°F-9.3°C -0.2°F-17.9°C 50% 5.0 mph W8.0 kmh W -- 29.76 in1007.8 mb 0.00 in0.0 mm 0.00 in0.0 mm 0.00 in0.0 mm
03:20 AM 15.2°F-9.3°C -0.2°F-17.9°C 50% 8.0 mph W12.9 kmh W -- 29.77 in1008.1 mb 0.00 in0.0 mm 0.00 in0.0 mm 0.00 in0.0 mm
03:19 AM 15.2°F-9.3°C -0.2°F-17.9°C 50% 6.0 mph W9.7 kmh W -- 29.76 in1007.8 mb 0.00 in0.0 mm 0.00 in0.0 mm 0.00 in0.0 mm
03:18 AM 15.2°F-9.3°C -0.2°F-17.9°C 50% 8.0 mph WSW12.9 kmh WSW -- 29.76 in1007.8 mb 0.00 in0.0 mm 0.00 in0.0 mm 0.00 in0.0 mm
03:17 AM 15.2°F-9.3°C -0.2°F-17.9°C 50% 6.0 mph WSW9.7 kmh WSW -- 29.76 in1007.8 mb 0.00 in0.0 mm 0.00 in0.0 mm 0.00 in0.0 mm
03:16 AM 15.2°F-9.3°C -0.2°F-17.9°C 50% 7.0 mph W11.3 kmh W -- 29.76 in1007.8 mb 0.00 in0.0 mm 0.00 in0.0 mm 0.00 in0.0 mm
03:15 AM 15.3°F-9.3°C -0.2°F-17.9°C 50% 6.0 mph W9.7 kmh W -- 29.76 in1007.8 mb 0.00 in0.0 mm 0.00 in0.0 mm 0.00 in0.0 mm
03:14 AM 15.3°F-9.3°C -0.2°F-17.9°C 50% 7.0 mph WNW11.3 kmh WNW -- 29.77 in1008.1 mb 0.00 in0.0 mm 0.00 in0.0 mm 0.00 in0.0 mm
03:13 AM 15.3°F-9.3°C -0.2°F-17.9°C 50% 6.0 mph WSW9.7 kmh WSW -- 29.77 in1008.1 mb 0.00 in0.0 mm 0.00 in0.0 mm 0.00 in0.0 mm
03:12 AM 15.3°F-9.3°C -0.2°F-17.9°C 50% 8.0 mph W12.9 kmh W -- 29.76 in1007.8 mb 0.00 in0.0 mm 0.00 in0.0 mm 0.00 in0.0 mm
03:11 AM 15.3°F-9.3°C -0.2°F-17.9°C 50% 5.0 mph W8.0 kmh W -- 29.76 in1007.8 mb 0.00 in0.0 mm 0.00 in0.0 mm 0.00 in0.0 mm
03:10 AM 15.3°F-9.3°C -0.2°F-17.9°C 50% 7.0 mph W11.3 kmh W -- 29.76 in1007.8 mb 0.00 in0.0 mm 0.00 in0.0 mm 0.00 in0.0 mm
03:09 AM 15.3°F-9.3°C -0.2°F-17.9°C 50% 9.0 mph W14.5 kmh W -- 29.76 in1007.8 mb 0.00 in0.0 mm 0.00 in0.0 mm 0.00 in0.0 mm
03:08 AM 15.6°F-9.1°C 0.1°F-17.7°C 50% 8.0 mph WNW12.9 kmh WNW -- 29.76 in1007.8 mb 0.00 in0.0 mm 0.00 in0.0 mm 0.00 in0.0 mm
03:07 AM 15.6°F-9.1°C 0.1°F-17.7°C 50% 6.0 mph W9.7 kmh W -- 29.76 in1007.8 mb 0.00 in0.0 mm 0.00 in0.0 mm 0.00 in0.0 mm
03:06 AM 15.6°F-9.1°C 0.1°F-17.7°C 50% 7.0 mph W11.3 kmh W -- 29.76 in1007.8 mb 0.00 in0.0 mm 0.00 in0.0 mm 0.00 in0.0 mm
03:05 AM 15.6°F-9.1°C 0.1°F-17.7°C 50% 8.0 mph W12.9 kmh W -- 29.76 in1007.8 mb 0.00 in0.0 mm 0.00 in0.0 mm 0.00 in0.0 mm
03:04 AM 15.6°F-9.1°C 0.1°F-17.7°C 50% 6.0 mph W9.7 kmh W -- 29.77 in1008.1 mb 0.00 in0.0 mm 0.00 in0.0 mm 0.00 in0.0 mm
03:03 AM 15.6°F-9.1°C 0.1°F-17.7°C 50% 8.0 mph W12.9 kmh W -- 29.77 in1008.1 mb 0.00 in0.0 mm 0.00 in0.0 mm 0.00 in0.0 mm
03:02 AM 15.6°F-9.1°C 0.1°F-17.7°C 50% 8.0 mph W12.9 kmh W -- 29.76 in1007.8 mb 0.00 in0.0 mm 0.00 in0.0 mm 0.00 in0.0 mm
03:01 AM 15.8°F-9.0°C 0.3°F-17.6°C 50% 6.0 mph W9.7 kmh W -- 29.76 in1007.8 mb 0.00 in0.0 mm 0.00 in0.0 mm 0.00 in0.0 mm
03:00 AM 15.8°F-9.0°C 0.3°F-17.6°C 50% 6.0 mph WNW9.7 kmh WNW -- 29.76 in1007.8 mb 0.00 in0.0 mm 0.00 in0.0 mm 0.00 in0.0 mm
02:59 AM 15.8°F-9.0°C 0.3°F-17.6°C 50% 6.0 mph W9.7 kmh W -- 29.76 in1007.8 mb 0.00 in0.0 mm 0.00 in0.0 mm 0.00 in0.0 mm
02:58 AM 15.8°F-9.0°C 0.3°F-17.6°C 50% 7.0 mph W11.3 kmh W -- 29.76 in1007.8 mb 0.00 in0.0 mm 0.00 in0.0 mm 0.00 in0.0 mm
02:57 AM 15.8°F-9.0°C 0.3°F-17.6°C 50% 9.0 mph WNW14.5 kmh WNW -- 29.76 in1007.8 mb 0.00 in0.0 mm 0.00 in0.0 mm 0.00 in0.0 mm
02:56 AM 15.8°F-9.0°C 0.3°F-17.6°C 50% 8.0 mph W12.9 kmh W -- 29.76 in1007.8 mb 0.00 in0.0 mm 0.00 in0.0 mm 0.00 in0.0 mm
02:55 AM 15.6°F-9.1°C 0.1°F-17.7°C 50% 9.0 mph W14.5 kmh W -- 29.76 in1007.8 mb 0.00 in0.0 mm 0.00 in0.0 mm 0.00 in0.0 mm
02:54 AM 15.6°F-9.1°C 0.1°F-17.7°C 50% 11.0 mph SW17.7 kmh SW -- 29.76 in1007.8 mb 0.00 in0.0 mm 0.00 in0.0 mm 0.00 in0.0 mm
02:53 AM 15.2°F-9.3°C -0.2°F-17.9°C 50% 10.0 mph W16.1 kmh W -- 29.76 in1007.8 mb 0.00 in0.0 mm 0.00 in0.0 mm 0.00 in0.0 mm
02:52 AM 15.2°F-9.3°C -0.2°F-17.9°C 50% 9.0 mph W14.5 kmh W -- 29.76 in1007.8 mb 0.00 in0.0 mm 0.00 in0.0 mm 0.00 in0.0 mm
02:51 AM 15.0°F-9.4°C 0.0°F-17.8°C 51% 8.0 mph W12.9 kmh W -- 29.76 in1007.8 mb 0.00 in0.0 mm 0.00 in0.0 mm 0.00 in0.0 mm
02:50 AM 14.9°F-9.5°C -0.1°F-17.8°C 51% 9.0 mph SW14.5 kmh SW -- 29.77 in1008.1 mb 0.00 in0.0 mm 0.00 in0.0 mm 0.00 in0.0 mm
02:49 AM 14.9°F-9.5°C -0.1°F-17.8°C 51% 5.0 mph NW8.0 kmh NW -- 29.77 in1008.1 mb 0.00 in0.0 mm 0.00 in0.0 mm 0.00 in0.0 mm
02:48 AM 14.7°F-9.6°C 0.5°F-17.5°C 53% 10.0 mph W16.1 kmh W -- 29.77 in1008.1 mb 0.00 in0.0 mm 0.00 in0.0 mm 0.00 in0.0 mm
02:47 AM 14.7°F-9.6°C 0.5°F-17.5°C 53% 5.0 mph WNW8.0 kmh WNW -- 29.77 in1008.1 mb 0.00 in0.0 mm 0.00 in0.0 mm 0.00 in0.0 mm
02:46 AM 14.7°F-9.6°C 0.5°F-17.5°C 53% 9.0 mph WSW14.5 kmh WSW -- 29.76 in1007.8 mb 0.00 in0.0 mm 0.00 in0.0 mm 0.00 in0.0 mm
02:45 AM 14.7°F-9.6°C 0.5°F-17.5°C 53% 7.0 mph W11.3 kmh W -- 29.76 in1007.8 mb 0.00 in0.0 mm 0.00 in0.0 mm 0.00 in0.0 mm
02:44 AM 14.7°F-9.6°C 0.5°F-17.5°C 53% 8.0 mph W12.9 kmh W -- 29.76 in1007.8 mb 0.00 in0.0 mm 0.00 in0.0 mm 0.00 in0.0 mm
02:43 AM 14.7°F-9.6°C 0.5°F-17.5°C 53% 7.0 mph W11.3 kmh W -- 29.76 in1007.8 mb 0.00 in0.0 mm 0.00 in0.0 mm 0.00 in0.0 mm
02:42 AM 14.7°F-9.6°C 0.5°F-17.5°C 53% 8.0 mph W12.9 kmh W -- 29.76 in1007.8 mb 0.00 in0.0 mm 0.00 in0.0 mm 0.00 in0.0 mm
02:41 AM 14.7°F-9.6°C 0.5°F-17.5°C 53% 6.0 mph W9.7 kmh W -- 29.76 in1007.8 mb 0.00 in0.0 mm 0.00 in0.0 mm 0.00 in0.0 mm
02:40 AM 14.7°F-9.6°C 0.5°F-17.5°C 53% 8.0 mph W12.9 kmh W -- 29.76 in1007.8 mb 0.00 in0.0 mm 0.00 in0.0 mm 0.00 in0.0 mm
02:39 AM 14.7°F-9.6°C 0.5°F-17.5°C 53% 6.0 mph WSW9.7 kmh WSW -- 29.76 in1007.8 mb 0.00 in0.0 mm 0.00 in0.0 mm 0.00 in0.0 mm
02:38 AM 14.7°F-9.6°C 0.5°F-17.5°C 53% 5.0 mph W8.0 kmh W -- 29.76 in1007.8 mb 0.00 in0.0 mm 0.00 in0.0 mm 0.00 in0.0 mm
02:36 AM 14.7°F-9.6°C 0.5°F-17.5°C 53% 7.0 mph W11.3 kmh W -- 29.76 in1007.8 mb 0.00 in0.0 mm 0.00 in0.0 mm 0.00 in0.0 mm
02:35 AM 14.7°F-9.6°C 0.5°F-17.5°C 53% 6.0 mph W9.7 kmh W -- 29.76 in1007.8 mb 0.00 in0.0 mm 0.00 in0.0 mm 0.00 in0.0 mm
02:34 AM 14.7°F-9.6°C 0.5°F-17.5°C 53% 5.0 mph WSW8.0 kmh WSW -- 29.76 in1007.8 mb 0.00 in0.0 mm 0.00 in0.0 mm 0.00 in0.0 mm
02:33 AM 14.9°F-9.5°C 0.7°F-17.4°C 53% 6.0 mph W9.7 kmh W -- 29.76 in1007.8 mb 0.00 in0.0 mm 0.00 in0.0 mm 0.00 in0.0 mm
02:32 AM 14.9°F-9.5°C 0.7°F-17.4°C 53% 7.0 mph W11.3 kmh W -- 29.76 in1007.8 mb 0.00 in0.0 mm 0.00 in0.0 mm 0.00 in0.0 mm
02:31 AM 14.9°F-9.5°C 0.7°F-17.4°C 53% 8.0 mph W12.9 kmh W -- 29.76 in1007.8 mb 0.00 in0.0 mm 0.00 in0.0 mm 0.00 in0.0 mm
02:30 AM 14.9°F-9.5°C 0.7°F-17.4°C 53% 9.0 mph WSW14.5 kmh WSW -- 29.76 in1007.8 mb 0.00 in0.0 mm 0.00 in0.0 mm 0.00 in0.0 mm
02:28 AM 14.9°F-9.5°C 0.7°F-17.4°C 53% 9.0 mph W14.5 kmh W -- 29.76 in1007.8 mb 0.00 in0.0 mm 0.00 in0.0 mm 0.00 in0.0 mm
02:27 AM 14.9°F-9.5°C 0.7°F-17.4°C 53% 10.0 mph W16.1 kmh W -- 29.76 in1007.8 mb 0.00 in0.0 mm 0.00 in0.0 mm 0.00 in0.0 mm
02:26 AM 14.9°F-9.5°C 0.7°F-17.4°C 53% 8.0 mph WNW12.9 kmh WNW -- 29.76 in1007.8 mb 0.00 in0.0 mm 0.00 in0.0 mm 0.00 in0.0 mm
02:25 AM 14.9°F-9.5°C 0.7°F-17.4°C 53% 8.0 mph W12.9 kmh W -- 29.76 in1007.8 mb 0.00 in0.0 mm 0.00 in0.0 mm 0.00 in0.0 mm
02:24 AM 14.9°F-9.5°C 0.7°F-17.4°C 53% 7.0 mph W11.3 kmh W -- 29.76 in1007.8 mb 0.00 in0.0 mm 0.00 in0.0 mm 0.00 in0.0 mm
02:23 AM 14.9°F-9.5°C 0.7°F-17.4°C 53% 8.0 mph W12.9 kmh W -- 29.76 in1007.8 mb 0.00 in0.0 mm 0.00 in0.0 mm 0.00 in0.0 mm
02:22 AM 14.9°F-9.5°C 0.7°F-17.4°C 53% 11.0 mph W17.7 kmh W -- 29.76 in1007.8 mb 0.00 in0.0 mm 0.00 in0.0 mm 0.00 in0.0 mm
02:21 AM 14.9°F-9.5°C 0.7°F-17.4°C 53% 10.0 mph W16.1 kmh W -- 29.76 in1007.8 mb 0.00 in0.0 mm 0.00 in0.0 mm 0.00 in0.0 mm
02:20 AM 14.9°F-9.5°C 0.7°F-17.4°C 53% 8.0 mph WNW12.9 kmh WNW -- 29.76 in1007.8 mb 0.00 in0.0 mm 0.00 in0.0 mm 0.00 in0.0 mm
02:19 AM 14.7°F-9.6°C 0.9°F-17.3°C 54% 10.0 mph W16.1 kmh W -- 29.76 in1007.8 mb 0.00 in0.0 mm 0.00 in0.0 mm 0.00 in0.0 mm
02:18 AM 14.7°F-9.6°C 0.9°F-17.3°C 54% 8.0 mph W12.9 kmh W -- 29.76 in1007.8 mb 0.00 in0.0 mm 0.00 in0.0 mm 0.00 in0.0 mm
02:17 AM 14.7°F-9.6°C 0.9°F-17.3°C 54% 10.0 mph WNW16.1 kmh WNW -- 29.76 in1007.8 mb 0.00 in0.0 mm 0.00 in0.0 mm 0.00 in0.0 mm
02:15 AM 14.5°F-9.7°C 0.8°F-17.3°C 54% 9.0 mph W14.5 kmh W -- 29.76 in1007.8 mb 0.00 in0.0 mm 0.00 in0.0 mm 0.00 in0.0 mm
02:14 AM 14.1°F-9.9°C 0.4°F-17.6°C 54% 10.0 mph W16.1 kmh W -- 29.76 in1007.8 mb 0.00 in0.0 mm 0.00 in0.0 mm 0.00 in0.0 mm
02:12 AM 13.9°F-10.1°C 0.5°F-17.5°C 55% 9.0 mph W14.5 kmh W -- 29.76 in1007.8 mb 0.00 in0.0 mm 0.00 in0.0 mm 0.00 in0.0 mm
02:11 AM 13.7°F-10.2°C 0.3°F-17.6°C 55% 8.0 mph W12.9 kmh W -- 29.76 in1007.8 mb 0.00 in0.0 mm 0.00 in0.0 mm 0.00 in0.0 mm
02:10 AM 13.7°F-10.2°C 0.3°F-17.6°C 55% 7.0 mph W11.3 kmh W -- 29.76 in1007.8 mb 0.00 in0.0 mm 0.00 in0.0 mm 0.00 in0.0 mm
02:09 AM 13.6°F-10.2°C 0.3°F-17.6°C 55% 8.0 mph WNW12.9 kmh WNW -- 29.76 in1007.8 mb 0.00 in0.0 mm 0.00 in0.0 mm 0.00 in0.0 mm
02:08 AM 13.6°F-10.2°C 0.3°F-17.6°C 55% 5.0 mph WNW8.0 kmh WNW -- 29.76 in1007.8 mb 0.00 in0.0 mm 0.00 in0.0 mm 0.00 in0.0 mm
02:07 AM 13.6°F-10.2°C 0.3°F-17.6°C 55% 6.0 mph W9.7 kmh W -- 29.76 in1007.8 mb 0.00 in0.0 mm 0.00 in0.0 mm 0.00 in0.0 mm
02:06 AM 13.5°F-10.3°C 0.5°F-17.5°C 56% 6.0 mph W9.7 kmh W -- 29.76 in1007.8 mb 0.00 in0.0 mm 0.00 in0.0 mm 0.00 in0.0 mm
02:05 AM 13.5°F-10.3°C 0.5°F-17.5°C 56% 6.0 mph WNW9.7 kmh WNW -- 29.76 in1007.8 mb 0.00 in0.0 mm 0.00 in0.0 mm 0.00 in0.0 mm
02:04 AM 13.5°F-10.3°C 0.5°F-17.5°C 56% 9.0 mph W14.5 kmh W -- 29.76 in1007.8 mb 0.00 in0.0 mm 0.00 in0.0 mm 0.00 in0.0 mm
02:03 AM 13.5°F-10.3°C 0.5°F-17.5°C 56% 7.0 mph W11.3 kmh W -- 29.76 in1007.8 mb 0.00 in0.0 mm 0.00 in0.0 mm 0.00 in0.0 mm
02:01 AM 13.3°F-10.4°C 0.4°F-17.6°C 56% 7.0 mph W11.3 kmh W -- 29.76 in1007.8 mb 0.00 in0.0 mm 0.00 in0.0 mm 0.00 in0.0 mm
02:00 AM 13.1°F-10.5°C 0.2°F-17.7°C 56% 8.0 mph W12.9 kmh W -- 29.76 in1007.8 mb 0.00 in0.0 mm 0.00 in0.0 mm 0.00 in0.0 mm
01:59 AM 13.1°F-10.5°C 0.9°F-17.3°C 58% 7.0 mph W11.3 kmh W -- 29.76 in1007.8 mb 0.00 in0.0 mm 0.00 in0.0 mm 0.00 in0.0 mm
01:58 AM 12.8°F-10.7°C 0.6°F-17.4°C 58% 8.0 mph W12.9 kmh W -- 29.76 in1007.8 mb 0.00 in0.0 mm 0.00 in0.0 mm 0.00 in0.0 mm
01:57 AM 12.8°F-10.7°C 0.6°F-17.4°C 58% 5.0 mph WSW8.0 kmh WSW -- 29.76 in1007.8 mb 0.00 in0.0 mm 0.00 in0.0 mm 0.00 in0.0 mm
01:56 AM 12.6°F-10.8°C 0.4°F-17.6°C 58% 9.0 mph W14.5 kmh W -- 29.76 in1007.8 mb 0.00 in0.0 mm 0.00 in0.0 mm 0.00 in0.0 mm
01:55 AM 12.6°F-10.8°C 0.4°F-17.6°C 58% 7.0 mph W11.3 kmh W -- 29.76 in1007.8 mb 0.00 in0.0 mm 0.00 in0.0 mm 0.00 in0.0 mm
01:54 AM 12.5°F-10.8°C 0.4°F-17.6°C 58% 6.0 mph W9.7 kmh W -- 29.76 in1007.8 mb 0.00 in0.0 mm 0.00 in0.0 mm 0.00 in0.0 mm
01:53 AM 12.5°F-10.8°C 0.4°F-17.6°C 58% 5.0 mph W8.0 kmh W -- 29.76 in1007.8 mb 0.00 in0.0 mm 0.00 in0.0 mm 0.00 in0.0 mm
01:51 AM 12.5°F-10.8°C 0.4°F-17.6°C 58% 7.0 mph W11.3 kmh W -- 29.76 in1007.8 mb 0.00 in0.0 mm 0.00 in0.0 mm 0.00 in0.0 mm
01:50 AM 12.5°F-10.8°C 0.4°F-17.6°C 58% 6.0 mph W9.7 kmh W -- 29.76 in1007.8 mb 0.00 in0.0 mm 0.00 in0.0 mm 0.00 in0.0 mm
01:49 AM 12.5°F-10.8°C 0.4°F-17.6°C 58% 7.0 mph W11.3 kmh W -- 29.76 in1007.8 mb 0.00 in0.0 mm 0.00 in0.0 mm 0.00 in0.0 mm
01:48 AM 12.5°F-10.8°C 0.4°F-17.6°C 58% 6.0 mph W9.7 kmh W -- 29.76 in1007.8 mb 0.00 in0.0 mm 0.00 in0.0 mm 0.00 in0.0 mm
01:47 AM 12.5°F-10.8°C 0.4°F-17.6°C 58% 4.0 mph W6.4 kmh W -- 29.76 in1007.8 mb 0.00 in0.0 mm 0.00 in0.0 mm 0.00 in0.0 mm
01:45 AM 12.5°F-10.8°C 0.4°F-17.6°C 58% 6.0 mph W9.7 kmh W -- 29.76 in1007.8 mb 0.00 in0.0 mm 0.00 in0.0 mm 0.00 in0.0 mm
01:44 AM 12.5°F-10.8°C 0.4°F-17.6°C 58% 5.0 mph WNW8.0 kmh WNW -- 29.76 in1007.8 mb 0.00 in0.0 mm 0.00 in0.0 mm 0.00 in0.0 mm
01:43 AM 12.5°F-10.8°C 0.4°F-17.6°C 58% 5.0 mph W8.0 kmh W -- 29.76 in1007.8 mb 0.00 in0.0 mm 0.00 in0.0 mm 0.00 in0.0 mm
01:42 AM 12.5°F-10.8°C 0.4°F-17.6°C 58% 6.0 mph WNW9.7 kmh WNW -- 29.76 in1007.8 mb 0.00 in0.0 mm 0.00 in0.0 mm 0.00 in0.0 mm
01:41 AM 12.5°F-10.8°C 0.4°F-17.6°C 58% 4.0 mph W6.4 kmh W -- 29.76 in1007.8 mb 0.00 in0.0 mm 0.00 in0.0 mm 0.00 in0.0 mm
01:37 AM 12.5°F-10.8°C 0.4°F-17.6°C 58% 5.0 mph W8.0 kmh W -- 29.76 in1007.8 mb 0.00 in0.0 mm 0.00 in0.0 mm 0.00 in0.0 mm
01:36 AM 12.5°F-10.8°C 0.4°F-17.6°C 58% 6.0 mph W9.7 kmh W -- 29.76 in1007.8 mb 0.00 in0.0 mm 0.00 in0.0 mm 0.00 in0.0 mm
01:35 AM 12.5°F-10.8°C 0.4°F-17.6°C 58% 5.0 mph W8.0 kmh W -- 29.77 in1008.1 mb 0.00 in0.0 mm 0.00 in0.0 mm 0.00 in0.0 mm
01:34 AM 12.6°F-10.8°C 0.4°F-17.6°C 58% 3.0 mph WNW4.8 kmh WNW -- 29.76 in1007.8 mb 0.00 in0.0 mm 0.00 in0.0 mm 0.00 in0.0 mm
01:33 AM 12.6°F-10.8°C 0.4°F-17.6°C 58% 5.0 mph W8.0 kmh W -- 29.76 in1007.8 mb 0.00 in0.0 mm 0.00 in0.0 mm 0.00 in0.0 mm
01:32 AM 12.6°F-10.8°C 0.4°F-17.6°C 58% 4.0 mph W6.4 kmh W -- 29.76 in1007.8 mb 0.00 in0.0 mm 0.00 in0.0 mm 0.00 in0.0 mm
01:31 AM 12.6°F-10.8°C 0.4°F-17.6°C 58% 5.0 mph W8.0 kmh W -- 29.76 in1007.8 mb 0.00 in0.0 mm 0.00 in0.0 mm 0.00 in0.0 mm
01:30 AM 12.8°F-10.7°C 0.6°F-17.4°C 58% 6.0 mph W9.7 kmh W -- 29.76 in1007.8 mb 0.00 in0.0 mm 0.00 in0.0 mm 0.00 in0.0 mm
01:29 AM 12.8°F-10.7°C 0.6°F-17.4°C 58% 5.0 mph W8.0 kmh W -- 29.77 in1008.1 mb 0.00 in0.0 mm 0.00 in0.0 mm 0.00 in0.0 mm
01:28 AM 13.1°F-10.5°C 0.9°F-17.3°C 58% 4.0 mph W6.4 kmh W -- 29.76 in1007.8 mb 0.00 in0.0 mm 0.00 in0.0 mm 0.00 in0.0 mm
01:27 AM 13.1°F-10.5°C 0.9°F-17.3°C 58% 6.0 mph W9.7 kmh W -- 29.77 in1008.1 mb 0.00 in0.0 mm 0.00 in0.0 mm 0.00 in0.0 mm
01:26 AM 13.1°F-10.5°C 0.2°F-17.7°C 56% 5.0 mph W8.0 kmh W -- 29.77 in1008.1 mb 0.00 in0.0 mm 0.00 in0.0 mm 0.00 in0.0 mm
01:25 AM 13.1°F-10.5°C 0.2°F-17.7°C 56% 6.0 mph W9.7 kmh W -- 29.77 in1008.1 mb 0.00 in0.0 mm 0.00 in0.0 mm 0.00 in0.0 mm
01:24 AM 13.3°F-10.4°C 0.4°F-17.6°C 56% 5.0 mph W8.0 kmh W -- 29.77 in1008.1 mb 0.00 in0.0 mm 0.00 in0.0 mm 0.00 in0.0 mm
01:21 AM 13.3°F-10.4°C 0.4°F-17.6°C 56% 6.0 mph W9.7 kmh W -- 29.77 in1008.1 mb 0.00 in0.0 mm 0.00 in0.0 mm 0.00 in0.0 mm
01:20 AM 13.3°F-10.4°C 0.4°F-17.6°C 56% 5.0 mph WNW8.0 kmh WNW -- 29.76 in1007.8 mb 0.00 in0.0 mm 0.00 in0.0 mm 0.00 in0.0 mm
01:19 AM 13.5°F-10.3°C 0.5°F-17.5°C 56% 8.0 mph W12.9 kmh W -- 29.77 in1008.1 mb 0.00 in0.0 mm 0.00 in0.0 mm 0.00 in0.0 mm
01:17 AM 13.5°F-10.3°C 0.5°F-17.5°C 56% 6.0 mph W9.7 kmh W -- 29.77 in1008.1 mb 0.00 in0.0 mm 0.00 in0.0 mm 0.00 in0.0 mm
01:16 AM 13.5°F-10.3°C 0.5°F-17.5°C 56% 6.0 mph WSW9.7 kmh WSW -- 29.77 in1008.1 mb 0.00 in0.0 mm 0.00 in0.0 mm 0.00 in0.0 mm
01:15 AM 13.5°F-10.3°C 0.5°F-17.5°C 56% 7.0 mph W11.3 kmh W -- 29.77 in1008.1 mb 0.00 in0.0 mm 0.00 in0.0 mm 0.00 in0.0 mm
01:14 AM 13.5°F-10.3°C 0.5°F-17.5°C 56% 6.0 mph W9.7 kmh W -- 29.77 in1008.1 mb 0.00 in0.0 mm 0.00 in0.0 mm 0.00 in0.0 mm
01:13 AM 13.5°F-10.3°C 0.5°F-17.5°C 56% 7.0 mph W11.3 kmh W -- 29.77 in1008.1 mb 0.00 in0.0 mm 0.00 in0.0 mm 0.00 in0.0 mm
01:12 AM 13.3°F-10.4°C 1.1°F-17.2°C 58% 7.0 mph W11.3 kmh W -- 29.77 in1008.1 mb 0.00 in0.0 mm 0.00 in0.0 mm 0.00 in0.0 mm
01:11 AM 13.3°F-10.4°C 1.1°F-17.2°C 58% 6.0 mph W9.7 kmh W -- 29.77 in1008.1 mb 0.00 in0.0 mm 0.00 in0.0 mm 0.00 in0.0 mm
01:10 AM 13.3°F-10.4°C 1.1°F-17.2°C 58% 6.0 mph WNW9.7 kmh WNW -- 29.77 in1008.1 mb 0.00 in0.0 mm 0.00 in0.0 mm 0.00 in0.0 mm
01:09 AM 13.3°F-10.4°C 1.1°F-17.2°C 58% 4.0 mph W6.4 kmh W -- 29.77 in1008.1 mb 0.00 in0.0 mm 0.00 in0.0 mm 0.00 in0.0 mm
01:08 AM 13.3°F-10.4°C 1.1°F-17.2°C 58% 6.0 mph WNW9.7 kmh WNW -- 29.77 in1008.1 mb 0.00 in0.0 mm 0.00 in0.0 mm 0.00 in0.0 mm
01:07 AM 13.3°F-10.4°C 1.1°F-17.2°C 58% 4.0 mph W6.4 kmh W -- 29.77 in1008.1 mb 0.00 in0.0 mm 0.00 in0.0 mm 0.00 in0.0 mm
01:05 AM 13.3°F-10.4°C 1.5°F-16.9°C 59% 6.0 mph W9.7 kmh W -- 29.77 in1008.1 mb 0.00 in0.0 mm 0.00 in0.0 mm 0.00 in0.0 mm
01:04 AM 13.3°F-10.4°C 1.5°F-16.9°C 59% 7.0 mph W11.3 kmh W -- 29.77 in1008.1 mb 0.00 in0.0 mm 0.00 in0.0 mm 0.00 in0.0 mm
01:03 AM 13.1°F-10.5°C 1.3°F-17.1°C 59% 7.0 mph W11.3 kmh W -- 29.77 in1008.1 mb 0.00 in0.0 mm 0.00 in0.0 mm 0.00 in0.0 mm
01:02 AM 13.1°F-10.5°C 1.3°F-17.1°C 59% 6.0 mph W9.7 kmh W -- 29.77 in1008.1 mb 0.00 in0.0 mm 0.00 in0.0 mm 0.00 in0.0 mm
01:01 AM 13.1°F-10.5°C 1.3°F-17.1°C 59% 5.0 mph W8.0 kmh W -- 29.77 in1008.1 mb 0.00 in0.0 mm 0.00 in0.0 mm 0.00 in0.0 mm
01:00 AM 13.1°F-10.5°C 1.3°F-17.1°C 59% 5.0 mph WNW8.0 kmh WNW -- 29.77 in1008.1 mb 0.00 in0.0 mm 0.00 in0.0 mm 0.00 in0.0 mm
12:59 AM 13.1°F-10.5°C 1.3°F-17.1°C 59% 6.0 mph W9.7 kmh W -- 29.77 in1008.1 mb 0.00 in0.0 mm 0.00 in0.0 mm 0.00 in0.0 mm
12:58 AM 13.1°F-10.5°C 1.3°F-17.1°C 59% 5.0 mph W8.0 kmh W -- 29.77 in1008.1 mb 0.00 in0.0 mm 0.00 in0.0 mm 0.00 in0.0 mm
12:57 AM 12.8°F-10.7°C 1.0°F-17.2°C 59% 7.0 mph W11.3 kmh W -- 29.77 in1008.1 mb 0.00 in0.0 mm 0.00 in0.0 mm 0.00 in0.0 mm
12:56 AM 12.8°F-10.7°C 1.3°F-17.1°C 60% 5.0 mph W8.0 kmh W -- 29.77 in1008.1 mb 0.00 in0.0 mm 0.00 in0.0 mm 0.00 in0.0 mm
12:54 AM 12.8°F-10.7°C 1.3°F-17.1°C 60% 6.0 mph W9.7 kmh W -- 29.77 in1008.1 mb 0.00 in0.0 mm 0.00 in0.0 mm 0.00 in0.0 mm
12:53 AM 12.8°F-10.7°C 1.3°F-17.1°C 60% 5.0 mph W8.0 kmh W -- 29.77 in1008.1 mb 0.00 in0.0 mm 0.00 in0.0 mm 0.00 in0.0 mm
12:52 AM 12.8°F-10.7°C 1.3°F-17.1°C 60% 6.0 mph W9.7 kmh W -- 29.77 in1008.1 mb 0.00 in0.0 mm 0.00 in0.0 mm 0.00 in0.0 mm
12:51 AM 12.8°F-10.7°C 1.7°F-16.8°C 61% 4.0 mph W6.4 kmh W -- 29.77 in1008.1 mb 0.00 in0.0 mm 0.00 in0.0 mm 0.00 in0.0 mm
12:50 AM 12.8°F-10.7°C 1.7°F-16.8°C 61% 5.0 mph NW8.0 kmh NW -- 29.77 in1008.1 mb 0.00 in0.0 mm 0.00 in0.0 mm 0.00 in0.0 mm
12:48 AM 12.8°F-10.7°C 1.7°F-16.8°C 61% 5.0 mph W8.0 kmh W -- 29.77 in1008.1 mb 0.00 in0.0 mm 0.00 in0.0 mm 0.00 in0.0 mm
12:47 AM 12.6°F-10.8°C 1.5°F-16.9°C 61% 5.0 mph WNW8.0 kmh WNW -- 29.77 in1008.1 mb 0.00 in0.0 mm 0.00 in0.0 mm 0.00 in0.0 mm
12:46 AM 12.6°F-10.8°C 1.5°F-16.9°C 61% 6.0 mph W9.7 kmh W -- 29.77 in1008.1 mb 0.00 in0.0 mm 0.00 in0.0 mm 0.00 in0.0 mm
12:45 AM 12.6°F-10.8°C 1.5°F-16.9°C 61% 4.0 mph SW6.4 kmh SW -- 29.77 in1008.1 mb 0.00 in0.0 mm 0.00 in0.0 mm 0.00 in0.0 mm
12:44 AM 12.6°F-10.8°C 1.5°F-16.9°C 61% 5.0 mph W8.0 kmh W -- 29.76 in1007.8 mb 0.00 in0.0 mm 0.00 in0.0 mm 0.00 in0.0 mm
12:43 AM 12.5°F-10.8°C 1.5°F-16.9°C 61% 4.0 mph W6.4 kmh W -- 29.76 in1007.8 mb 0.00 in0.0 mm 0.00 in0.0 mm 0.00 in0.0 mm
12:41 AM 12.5°F-10.8°C 1.5°F-16.9°C 61% 4.0 mph W6.4 kmh W -- 29.77 in1008.1 mb 0.00 in0.0 mm 0.00 in0.0 mm 0.00 in0.0 mm
12:40 AM 12.5°F-10.8°C 1.5°F-16.9°C 61% 4.0 mph W6.4 kmh W -- 29.76 in1007.8 mb 0.00 in0.0 mm 0.00 in0.0 mm 0.00 in0.0 mm
12:39 AM 12.4°F-10.9°C 1.4°F-17.0°C 61% 5.0 mph W8.0 kmh W -- 29.76 in1007.8 mb 0.00 in0.0 mm 0.00 in0.0 mm 0.00 in0.0 mm
12:38 AM 12.4°F-10.9°C 1.4°F-17.0°C 61% 4.0 mph W6.4 kmh W -- 29.76 in1007.8 mb 0.00 in0.0 mm 0.00 in0.0 mm 0.00 in0.0 mm
12:37 AM 12.4°F-10.9°C 1.4°F-17.0°C 61% 4.0 mph W6.4 kmh W -- 29.77 in1008.1 mb 0.00 in0.0 mm 0.00 in0.0 mm 0.00 in0.0 mm
12:36 AM 12.4°F-10.9°C 1.4°F-17.0°C 61% 4.0 mph WNW6.4 kmh WNW -- 29.76 in1007.8 mb 0.00 in0.0 mm 0.00 in0.0 mm 0.00 in0.0 mm
12:35 AM 12.2°F-11.0°C 1.2°F-17.1°C 61% 5.0 mph W8.0 kmh W -- 29.77 in1008.1 mb 0.00 in0.0 mm 0.00 in0.0 mm 0.00 in0.0 mm
12:34 AM 12.0°F-11.1°C 1.7°F-16.8°C 63% 6.0 mph W9.7 kmh W -- 29.76 in1007.8 mb 0.00 in0.0 mm 0.00 in0.0 mm 0.00 in0.0 mm
12:33 AM 11.6°F-11.3°C 1.4°F-17.0°C 63% 6.0 mph WNW9.7 kmh WNW -- 29.76 in1007.8 mb 0.00 in0.0 mm 0.00 in0.0 mm 0.00 in0.0 mm
12:32 AM 11.4°F-11.4°C 1.2°F-17.1°C 63% 5.0 mph W8.0 kmh W -- 29.76 in1007.8 mb 0.00 in0.0 mm 0.00 in0.0 mm 0.00 in0.0 mm
12:31 AM 11.4°F-11.4°C 1.2°F-17.1°C 63% 3.0 mph W4.8 kmh W -- 29.76 in1007.8 mb 0.00 in0.0 mm 0.00 in0.0 mm 0.00 in0.0 mm
12:30 AM 11.4°F-11.4°C 1.2°F-17.1°C 63% 4.0 mph W6.4 kmh W -- 29.76 in1007.8 mb 0.00 in0.0 mm 0.00 in0.0 mm 0.00 in0.0 mm
12:29 AM 11.2°F-11.6°C 1.5°F-16.9°C 65% 4.0 mph WNW6.4 kmh WNW -- 29.76 in1007.8 mb 0.00 in0.0 mm 0.00 in0.0 mm 0.00 in0.0 mm
12:27 AM 11.2°F-11.6°C 1.5°F-16.9°C 65% 4.0 mph W6.4 kmh W -- 29.76 in1007.8 mb 0.00 in0.0 mm 0.00 in0.0 mm 0.00 in0.0 mm
12:26 AM 11.2°F-11.6°C 1.5°F-16.9°C 65% 4.0 mph WNW6.4 kmh WNW -- 29.76 in1007.8 mb 0.00 in0.0 mm 0.00 in0.0 mm 0.00 in0.0 mm
12:25 AM 11.2°F-11.6°C 1.5°F-16.9°C 65% 3.0 mph W4.8 kmh W -- 29.76 in1007.8 mb 0.00 in0.0 mm 0.00 in0.0 mm 0.00 in0.0 mm
12:24 AM 11.4°F-11.4°C 1.9°F-16.7°C 65% 3.0 mph W4.8 kmh W -- 29.76 in1007.8 mb 0.00 in0.0 mm 0.00 in0.0 mm 0.00 in0.0 mm
12:23 AM 11.4°F-11.4°C 1.9°F-16.7°C 65% 2.0 mph WNW3.2 kmh WNW -- 29.76 in1007.8 mb 0.00 in0.0 mm 0.00 in0.0 mm 0.00 in0.0 mm
12:22 AM 11.6°F-11.3°C 2.1°F-16.6°C 65% 3.0 mph NW4.8 kmh NW -- 29.76 in1007.8 mb 0.00 in0.0 mm 0.00 in0.0 mm 0.00 in0.0 mm
12:21 AM 11.8°F-11.2°C 2.2°F-16.6°C 65% 3.0 mph WNW4.8 kmh WNW -- 29.76 in1007.8 mb 0.00 in0.0 mm 0.00 in0.0 mm 0.00 in0.0 mm
12:20 AM 11.8°F-11.2°C 2.2°F-16.6°C 65% 3.0 mph W4.8 kmh W -- 29.76 in1007.8 mb 0.00 in0.0 mm 0.00 in0.0 mm 0.00 in0.0 mm
12:19 AM 12.0°F-11.1°C 2.4°F-16.4°C 65% 2.0 mph W3.2 kmh W -- 29.76 in1007.8 mb 0.00 in0.0 mm 0.00 in0.0 mm 0.00 in0.0 mm
12:18 AM 12.2°F-11.0°C 2.6°F-16.3°C 65% 3.0 mph W4.8 kmh W -- 29.76 in1007.8 mb 0.00 in0.0 mm 0.00 in0.0 mm 0.00 in0.0 mm
12:17 AM 12.2°F-11.0°C 1.9°F-16.7°C 63% 4.0 mph WNW6.4 kmh WNW -- 29.76 in1007.8 mb 0.00 in0.0 mm 0.00 in0.0 mm 0.00 in0.0 mm
12:16 AM 12.4°F-10.9°C 2.1°F-16.6°C 63% 3.0 mph W4.8 kmh W -- 29.76 in1007.8 mb 0.00 in0.0 mm 0.00 in0.0 mm 0.00 in0.0 mm
12:15 AM 12.4°F-10.9°C 2.1°F-16.6°C 63% 4.0 mph W6.4 kmh W -- 29.76 in1007.8 mb 0.00 in0.0 mm 0.00 in0.0 mm 0.00 in0.0 mm
12:14 AM 12.5°F-10.8°C 2.2°F-16.6°C 63% 5.0 mph W8.0 kmh W -- 29.76 in1007.8 mb 0.00 in0.0 mm 0.00 in0.0 mm 0.00 in0.0 mm
12:13 AM 12.5°F-10.8°C 2.2°F-16.6°C 63% 4.0 mph W6.4 kmh W -- 29.76 in1007.8 mb 0.00 in0.0 mm 0.00 in0.0 mm 0.00 in0.0 mm
12:12 AM 12.6°F-10.8°C 2.2°F-16.6°C 63% 4.0 mph WNW6.4 kmh WNW -- 29.76 in1007.8 mb 0.00 in0.0 mm 0.00 in0.0 mm 0.00 in0.0 mm
12:11 AM 12.6°F-10.8°C 2.2°F-16.6°C 63% 3.0 mph W4.8 kmh W -- 29.76 in1007.8 mb 0.00 in0.0 mm 0.00 in0.0 mm 0.00 in0.0 mm
12:10 AM 12.6°F-10.8°C 2.2°F-16.6°C 63% 4.0 mph NW6.4 kmh NW -- 29.75 in1007.5 mb 0.00 in0.0 mm 0.00 in0.0 mm 0.00 in0.0 mm
12:09 AM 12.8°F-10.7°C 2.4°F-16.4°C 63% 4.0 mph W6.4 kmh W -- 29.76 in1007.8 mb 0.00 in0.0 mm 0.00 in0.0 mm 0.00 in0.0 mm
12:08 AM 12.8°F-10.7°C 2.4°F-16.4°C 63% 4.0 mph W6.4 kmh W -- 29.75 in1007.5 mb 0.00 in0.0 mm 0.00 in0.0 mm 0.00 in0.0 mm
12:05 AM 13.1°F-10.5°C 2.7°F-16.3°C 63% 4.0 mph W6.4 kmh W -- 29.76 in1007.8 mb 0.00 in0.0 mm 0.00 in0.0 mm 0.00 in0.0 mm
12:04 AM 13.1°F-10.5°C 2.7°F-16.3°C 63% 4.0 mph WNW6.4 kmh WNW -- 29.76 in1007.8 mb 0.00 in0.0 mm 0.00 in0.0 mm 0.00 in0.0 mm
12:03 AM 13.3°F-10.4°C 2.9°F-16.2°C 63% 6.0 mph W9.7 kmh W -- 29.76 in1007.8 mb 0.00 in0.0 mm 0.00 in0.0 mm 0.00 in0.0 mm
12:01 AM 13.3°F-10.4°C 2.9°F-16.2°C 63% 4.0 mph W6.4 kmh W -- 29.76 in1007.8 mb 0.00 in0.0 mm 0.00 in0.0 mm 0.00 in0.0 mm
12:00 AM 13.5°F-10.3°C 3.1°F-16.1°C 63% 5.0 mph W8.0 kmh W -- 29.76 in1007.8 mb 0.00 in0.0 mm 0.00 in0.0 mm 0.00 in0.0 mm